• Join FlightAware (Why Join?)
  • Login
  • US Flag 
01:17AM EDT


 

Airport Tracker/Info


-or-


 

Live Flight TrackerFlight Track Log ✈ UCA3596 ✈ 12-Jan-2014 ✈ KIAD - KBGM

Flight Track Log - Related Links

Times and Time Zones

All times are in EST time to prevent confusion due to time zone crossing. See the UCA3596 flight status page for this flight to view local times or setup timezone preferences in your user account.

Time Position Orientation Groundspeed Altitude Reporting Facility
EST Latitude Longitude Course Direction KTS MPH feet Rate Location/Type
01:20PM 39.5489 -77.1982 19° North  Level Estimated
01:21PM 39.6157 -77.1688 19° North  Level Estimated
01:22PM 39.6824 -77.1394 19° North  Level Estimated
01:23PM 39.7492 -77.1099 19° North  Level Estimated
01:24PM 39.8160 -77.0804 19° North  Level Estimated
01:25PM 39.8827 -77.0508 19° North  Level Estimated
01:26PM 39.9495 -77.0211 19° North  Level Estimated
01:27PM 40.0162 -76.9914 19° North  Level Estimated
01:28PM 40.0830 -76.9616 19° North  Level Estimated
01:29PM 40.1403 -76.9360 19° North  Level Estimated
01:30PM 40.1977 -76.9103 19° North  Level Estimated
01:31PM 40.2550 -76.8846 19° North  Level Estimated
01:32PM 40.3124 -76.8588 19° North  Level Estimated
01:33PM 40.3697 -76.8330 19° North  Level Estimated
01:34PM 40.4270 -76.8072 19° North  Level Estimated
01:35PM 40.4844 -76.7813 19° North  Level Estimated
01:36PM 40.5417 -76.7553 19° North  Level Estimated
01:37PM 40.5990 -76.7293 19° North  Level Estimated
01:38PM 40.6563 -76.7033 19° North  Level Estimated
01:39PM 40.7136 -76.6772 19° North  Level Estimated
01:40PM 40.7709 -76.6511 19° North  Level Estimated
01:41PM 40.8282 -76.6249 19° North  Level Estimated
01:42PM 40.8855 -76.5987 19° North  Level Estimated
01:43PM 40.9428 -76.5725 19° North  Level Estimated
01:44PM 41.0001 -76.5462 19° North  Level Estimated
01:45PM 41.0573 -76.5198 19° North  Level Estimated
01:46PM 41.1146 -76.4934 19° North  Level Estimated
01:47PM 41.1718 -76.4670 19° North  Level Estimated
01:48PM 41.2291 -76.4405 19° North  Level Estimated
01:49PM 41.2864 -76.4140 19° North  Level Estimated
01:50PM 41.3436 -76.3874 19° North  Level Estimated
01:51PM 41.4008 -76.3607 19° North  Level Estimated
01:52PM 41.4580 -76.3341 19° North  Level Estimated
01:53PM 41.5153 -76.3074 19° North  Level Estimated
01:54PM 41.5725 -76.2806 19° North  Level Estimated
01:55PM 41.6297 -76.2538 19° North  Level Estimated
01:56PM 41.6869 -76.2269 19° North  Level Estimated
01:57PM 41.7441 -76.2000 19° North  Level Estimated
01:58PM 41.8013 -76.1730 19° North  Level Estimated
01:59PM 41.8585 -76.1460 19° North  Level Estimated
02:00PM 41.9156 -76.1190 19° North  Level Estimated
02:01PM 41.9728 -76.0919 19° North  Level Estimated
02:02PM 42.0300 -76.0647 19° North  Level Estimated
02:03PM 42.0871 -76.0375 19° North  Level Estimated
02:04PM 42.1443 -76.0103 19° North  Level Estimated
02:05PM 42.2014 -75.9830 19° North  Level Estimated
02:06PM 42.2084 -75.9796 20° North  Level Estimated
02:07PM 42.2084 -75.9796 35° Northeast  Level Estimated
02:08PM 42.2084 -75.9796 35° Northeast  Level Estimated
02:09PM 42.2084 -75.9796 35° Northeast  Level Estimated
02:10PM 42.2084 -75.9796 35° Northeast  Level Estimated
02:11PM 42.2084 -75.9796 35° Northeast  Level Estimated
02:12PM 42.2084 -75.9796 35° Northeast  Level Estimated
02:13PM 42.2084 -75.9796 35° Northeast  Level Estimated
02:14PM 42.2084 -75.9796 35° Northeast  Level Estimated
02:15PM 42.2084 -75.9796 35° Northeast  Level Estimated
02:16PM 42.2084 -75.9796 35° Northeast  Level Estimated
02:17PM 42.2084 -75.9796 35° Northeast  Level Estimated
02:18PM 42.2084 -75.9796 35° Northeast  Level Estimated
02:19PM 42.2084 -75.9796 35° Northeast  Level Estimated
02:20PM 42.2084 -75.9796 35° Northeast  Level Estimated
02:21PM 42.2084 -75.9796 35° Northeast  Level Estimated
02:22PM 42.2084 -75.9796 35° Northeast  Level Estimated
02:23PM 42.2084 -75.9796 35° Northeast  Level Estimated
02:24PM 42.2084 -75.9796 35° Northeast  Level Estimated